Hauptseite
METAR-TAF:

METAR-TAF

Flughäfen :

Wallis, Frankreich

Breite: 13-14S, Länge: 176-10W, Höhe: 23 m

METAR: fehlend

Zeit: 15:20 (03:20 UTC)

Prognose

Neuester Wetterbericht von vor 4 Stunden und 20 Minuten, um 23:00 UTC
Gültige Prognose vom 30 um 00 UTC bis 30 um 24 UTC
Wind 8 kt aus Nord
Sichtweite 10 km oder mehr
Aufgelockert bewölkt in der Höhe von 2000 ft
Aufgelockert bewölkt in der Höhe von 4500 ft
Wahrscheinlichkeit 30% :
Zeitweise
vom 30 um 02 UTC bis 30 um 10 UTC
Leicht bewölkt in der Höhe von 2000 ft, Towering cumulus.
Regenschauer
Zeitweise
vom 30 um 10 UTC bis 30 um 24 UTC
Sichtweite: 3000 m
Aufgelockert bewölkt in der Höhe von 1800 ft, Towering cumulus.
Regenschauer

TAF: NLWW 292300Z 3000/3024 01008KT 9999 SCT020 SCT045 PROB30 TEMPO 3002/3010 SHRA FEW020TCU TEMPO 3010/3024 3000 SHRA SCT018TCU

Wetterbeobachtungen und Prognosen von mehr als 4000 Flughäfen (METAR und TAF Bericht).

Die verfügbaren Stationen werden durch gelbe und rote Markierungen auf der Karte dargestellt.

Führen Sie die Maus auf sie, um den Namen der Station zu sehen.

Darauf klicken, um die Beobachtung von Wetterbeobachtungen und Prognosen zu sehen.

Um die Karte zu ändern : klicken Sie auf den grünen Tasten mit einem schwarzen Kreuz Zum Vergrößern, auf den grünen Button mit einem Gedankenstrich zu verkleinern, oder auf die grünen Pfeile für benachbarte Karten.


METAR-TAF: